Time;durP1;ratioP1;P1;durP2;ratioP2;P2;SDS_P1;SDS_P2;PMS_P1;PMS_P2;Temp;Humidity;BMP_temperature;BMP_pressure;BME280_temperature;BME280_humidity;BME280_pressure;Samples;Min_cycle;Max_cycle;Signal;HPM_P1;HPM_P2
2022/08/03 00:01:17;;;;;;;0.30;0.30;;;21.40;99.90;;;;;;5071015;28;20188;-80
2022/08/03 00:03:42;;;;;;;0.63;0.63;;;21.50;99.90;;;;;;5068774;28;20252;-81
2022/08/03 00:06:08;;;;;;;0.40;0.40;;;21.60;99.90;;;;;;5070709;28;20670;-80
2022/08/03 00:08:34;;;;;;;0.73;0.57;;;21.70;99.90;;;;;;5073353;28;20199;-81
2022/08/03 00:10:59;;;;;;;0.80;0.80;;;21.70;99.90;;;;;;5080884;28;20608;-80
2022/08/03 00:13:26;;;;;;;1.07;0.97;;;21.70;99.90;;;;;;5073531;28;20235;-80
2022/08/03 00:15:51;;;;;;;1.13;1.13;;;21.70;99.90;;;;;;5071905;28;20260;-80
2022/08/03 00:18:17;;;;;;;0.27;0.27;;;21.50;99.90;;;;;;5069534;28;20651;-81
2022/08/03 00:20:43;;;;;;;0.77;0.77;;;21.30;99.90;;;;;;5065103;28;20293;-80
2022/08/03 00:23:08;;;;;;;0.40;0.40;;;21.10;99.90;;;;;;5075529;28;20215;-80
2022/08/03 00:25:35;;;;;;;0.40;0.40;;;21.00;99.90;;;;;;5074021;28;20184;-80
2022/08/03 00:28:02;;;;;;;0.40;0.40;;;20.90;99.90;;;;;;5070477;28;20201;-80
2022/08/03 00:30:27;;;;;;;0.60;0.60;;;20.90;99.90;;;;;;5071099;28;20196;-79
2022/08/03 00:32:53;;;;;;;0.43;0.43;;;21.00;99.90;;;;;;5072190;28;20200;-80
2022/08/03 00:35:19;;;;;;;0.20;0.20;;;21.10;99.90;;;;;;5072784;28;20248;-80
2022/08/03 00:37:44;;;;;;;0.30;0.30;;;21.20;99.90;;;;;;5074610;28;20200;-79
2022/08/03 00:40:12;;;;;;;0.20;0.20;;;21.10;99.90;;;;;;5073187;28;20184;-80
2022/08/03 00:42:49;;;;;;;0.50;0.50;;;21.10;99.90;;;;;;5075292;28;20210;-80
2022/08/03 00:45:20;;;;;;;0.33;0.33;;;20.90;99.90;;;;;;5072922;28;20181;-81
2022/08/03 00:47:46;;;;;;;0.40;0.40;;;21.10;99.90;;;;;;5065717;28;20209;-80
2022/08/03 00:50:12;;;;;;;0.40;0.40;;;21.00;99.90;;;;;;5067020;28;20193;-80
2022/08/03 00:52:38;;;;;;;0.43;0.43;;;20.90;99.90;;;;;;5068544;28;20201;-80
2022/08/03 00:55:04;;;;;;;0.30;0.30;;;21.00;99.90;;;;;;5074311;28;20181;-80
2022/08/03 00:57:32;;;;;;;0.30;0.30;;;21.10;99.90;;;;;;5085650;28;20185;-81
2022/08/03 01:00:01;;;;;;;0.33;0.33;;;21.10;99.90;;;;;;5073234;28;20180;-80
2022/08/03 01:02:28;;;;;;;0.67;0.53;;;21.10;99.90;;;;;;5066728;28;20208;-81
2022/08/03 01:04:54;;;;;;;0.33;0.33;;;21.20;99.90;;;;;;5068586;28;20535;-80
2022/08/03 01:07:24;;;;;;;0.20;0.20;;;21.20;99.90;;;;;;5073985;28;20334;-80
2022/08/03 01:10:03;;;;;;;0.47;0.30;;;21.10;99.90;;;;;;5069481;28;20242;-80
2022/08/03 01:12:55;;;;;;;0.33;0.33;;;21.00;99.90;;;;;;5065103;28;20292;-80
2022/08/03 01:15:35;;;;;;;0.20;0.20;;;21.00;99.90;;;;;;5072223;28;20184;-81
2022/08/03 01:18:18;;;;;;;0.30;0.30;;;21.00;99.90;;;;;;5063742;28;20185;-80
2022/08/03 01:20:48;;;;;;;0.60;0.37;;;20.90;99.90;;;;;;5064295;28;20647;-80
2022/08/03 01:23:13;;;;;;;0.40;0.40;;;20.80;99.90;;;;;;5070733;28;20204;-80
2022/08/03 01:26:00;;;;;;;0.70;0.70;;;20.80;99.90;;;;;;5074389;28;20195;-80
2022/08/03 01:29:13;;;;;;;0.30;0.30;;;20.80;99.90;;;;;;5073058;28;20238;-80
2022/08/03 01:31:48;;;;;;;0.37;0.37;;;20.90;99.90;;;;;;5082994;28;20200;-80
2022/08/03 01:34:17;;;;;;;0.37;0.37;;;20.90;99.90;;;;;;5063905;28;20209;-80
2022/08/03 01:36:51;;;;;;;1.20;0.40;;;21.00;99.90;;;;;;5069268;28;20319;-80
2022/08/03 01:39:17;;;;;;;0.20;0.20;;;20.80;99.90;;;;;;5062374;28;20173;-81
2022/08/03 01:41:58;;;;;;;0.30;0.30;;;20.90;99.90;;;;;;5086722;28;20208;-81
2022/08/03 01:44:28;;;;;;;0.60;0.23;;;20.80;99.90;;;;;;5068384;28;20184;-80
2022/08/03 01:46:55;;;;;;;1.30;0.57;;;20.60;99.90;;;;;;5062876;28;20305;-80
2022/08/03 01:49:23;;;;;;;0.73;0.33;;;20.30;99.90;;;;;;5069539;28;20202;-80
2022/08/03 01:51:50;;;;;;;0.30;0.30;;;20.10;99.90;;;;;;5084340;28;20350;-80
2022/08/03 01:54:17;;;;;;;0.33;0.33;;;20.00;99.90;;;;;;5070419;28;20235;-81
2022/08/03 01:56:45;;;;;;;1.50;0.50;;;20.00;99.90;;;;;;5074042;28;20189;-80
2022/08/03 01:59:13;;;;;;;0.60;0.60;;;20.10;99.90;;;;;;5072388;28;20199;-80
2022/08/03 02:01:40;;;;;;;0.30;0.30;;;20.10;99.90;;;;;;5066542;28;20548;-81
2022/08/03 02:04:07;;;;;;;0.20;0.20;;;20.00;99.90;;;;;;5068266;28;20650;-80
2022/08/03 02:06:34;;;;;;;0.70;0.70;;;20.00;99.90;;;;;;5071364;28;20216;-80
2022/08/03 02:09:01;;;;;;;0.20;0.20;;;20.00;99.90;;;;;;5070657;28;20211;-81
2022/08/03 02:11:29;;;;;;;0.67;0.30;;;19.90;99.90;;;;;;5061492;28;20240;-80
2022/08/03 02:13:57;;;;;;;0.57;0.57;;;19.80;99.90;;;;;;5067664;28;20189;-80
2022/08/03 02:16:25;;;;;;;0.37;0.37;;;19.90;99.90;;;;;;5061628;28;20203;-81
2022/08/03 02:18:52;;;;;;;0.20;0.20;;;19.90;99.90;;;;;;5067260;28;20191;-80
2022/08/03 02:21:19;;;;;;;0.50;0.43;;;19.90;99.90;;;;;;5069507;28;20188;-79
2022/08/03 02:23:44;;;;;;;0.40;0.40;;;19.80;99.90;;;;;;5083365;28;20184;-80
2022/08/03 02:26:14;;;;;;;0.30;0.30;;;19.70;99.90;;;;;;5073284;28;20662;-80
2022/08/03 02:28:44;;;;;;;0.50;0.30;;;19.80;99.90;;;;;;5070960;28;20208;-80
2022/08/03 02:31:16;;;;;;;0.20;0.20;;;19.90;99.90;;;;;;5088909;28;20322;-80
2022/08/03 02:33:47;;;;;;;0.40;0.40;;;20.00;99.90;;;;;;5068659;28;20193;-80
2022/08/03 02:36:14;;;;;;;0.90;0.33;;;20.20;99.90;;;;;;5073864;28;20185;-81
2022/08/03 02:38:42;;;;;;;0.23;0.23;;;20.30;99.90;;;;;;5068512;28;20207;-79
2022/08/03 02:41:15;;;;;;;0.20;0.20;;;20.40;99.90;;;;;;5071293;28;20177;-80
2022/08/03 02:43:44;;;;;;;0.40;0.40;;;20.40;99.90;;;;;;5066229;28;20190;-80
2022/08/03 02:46:13;;;;;;;0.50;0.50;;;20.40;99.90;;;;;;5070797;28;20954;-80
2022/08/03 02:48:40;;;;;;;7.03;0.93;;;20.40;99.90;;;;;;5069315;28;20228;-80
2022/08/03 02:51:08;;;;;;;0.40;0.40;;;20.40;99.90;;;;;;5069853;28;20165;-81
2022/08/03 02:53:35;;;;;;;0.33;0.33;;;20.40;99.90;;;;;;5072430;28;20181;-80
2022/08/03 02:56:02;;;;;;;1.30;0.30;;;20.40;99.90;;;;;;5057322;28;20263;-80
2022/08/03 02:58:30;;;;;;;0.10;0.10;;;20.50;99.90;;;;;;5064947;28;20181;-80
2022/08/03 03:00:56;;;;;;;0.30;0.30;;;20.50;99.90;;;;;;5071796;28;20185;-80
2022/08/03 03:03:22;;;;;;;0.20;0.20;;;20.50;99.90;;;;;;5069043;28;20685;-80
2022/08/03 03:05:48;;;;;;;0.20;0.20;;;20.50;99.90;;;;;;5060001;28;20182;-80
2022/08/03 03:08:17;;;;;;;0.30;0.30;;;20.50;99.90;;;;;;5064115;28;20208;-80
2022/08/03 03:10:43;;;;;;;0.20;0.20;;;20.50;99.90;;;;;;5076401;28;20188;-80
2022/08/03 03:13:09;;;;;;;0.37;0.37;;;20.50;99.90;;;;;;5087831;28;20207;-80
2022/08/03 03:15:37;;;;;;;0.40;0.30;;;20.40;99.90;;;;;;5062425;28;20768;-80
2022/08/03 03:18:03;;;;;;;0.30;0.30;;;20.40;99.90;;;;;;5068847;28;20216;-81
2022/08/03 03:20:31;;;;;;;0.40;0.40;;;20.30;99.90;;;;;;5067701;28;20224;-80
2022/08/03 03:23:00;;;;;;;0.50;0.33;;;20.20;99.90;;;;;;5081465;28;20308;-80
2022/08/03 03:25:28;;;;;;;0.80;0.50;;;20.10;99.90;;;;;;5070045;28;20271;-80
2022/08/03 03:27:54;;;;;;;0.60;0.60;;;20.20;99.90;;;;;;5065219;28;20212;-80
2022/08/03 03:30:19;;;;;;;0.40;0.40;;;20.10;99.90;;;;;;5071863;28;20181;-80
2022/08/03 03:32:45;;;;;;;0.30;0.30;;;20.10;99.90;;;;;;5067659;28;20274;-80
2022/08/03 03:35:12;;;;;;;0.20;0.20;;;20.10;99.90;;;;;;5064223;28;20212;-80
2022/08/03 03:37:38;;;;;;;0.67;0.67;;;20.20;99.90;;;;;;5071516;28;20181;-80
2022/08/03 03:40:04;;;;;;;0.43;0.43;;;20.20;99.90;;;;;;5071748;28;20189;-80
2022/08/03 03:42:31;;;;;;;0.50;0.50;;;20.20;99.90;;;;;;5069419;28;20273;-81
2022/08/03 03:44:56;;;;;;;0.20;0.20;;;20.20;99.90;;;;;;5064798;28;20185;-80
2022/08/03 03:47:22;;;;;;;0.40;0.40;;;20.10;99.90;;;;;;5078383;28;20212;-80
2022/08/03 03:49:48;;;;;;;0.30;0.30;;;20.10;99.90;;;;;;5074155;28;20197;-81
2022/08/03 03:52:15;;;;;;;0.77;0.40;;;20.00;99.90;;;;;;5089956;28;20212;-80
2022/08/03 03:54:42;;;;;;;0.50;0.50;;;19.90;99.90;;;;;;5070029;28;20174;-80
2022/08/03 03:57:10;;;;;;;0.43;0.43;;;20.00;99.90;;;;;;5070768;28;20268;-80
2022/08/03 03:59:39;;;;;;;0.33;0.33;;;20.00;99.90;;;;;;5072954;28;20184;-80
2022/08/03 04:02:10;;;;;;;0.40;0.40;;;20.10;99.90;;;;;;5069362;28;20266;-80
2022/08/03 04:13:16;;;;;;;0.30;0.30;;;20.00;99.90;;;;;;5067015;28;20212;-80
2022/08/03 04:15:44;;;;;;;0.53;0.53;;;20.30;99.90;;;;;;5071832;28;20184;-80
2022/08/03 04:18:12;;;;;;;0.30;0.30;;;20.40;99.90;;;;;;5074037;28;20181;-80
2022/08/03 04:20:42;;;;;;;0.70;0.70;;;20.50;99.90;;;;;;5082207;28;20257;-80
2022/08/03 04:23:08;;;;;;;0.60;0.60;;;20.30;99.90;;;;;;5073682;28;20204;-80
2022/08/03 04:25:38;;;;;;;0.53;0.40;;;20.20;99.90;;;;;;5069132;28;20192;-80
2022/08/03 04:28:05;;;;;;;0.77;0.67;;;20.10;99.90;;;;;;5070591;28;20213;-80
2022/08/03 04:30:33;;;;;;;0.40;0.40;;;20.10;99.90;;;;;;5072745;28;20177;-80
2022/08/03 04:33:01;;;;;;;0.30;0.30;;;20.10;99.90;;;;;;5073618;28;20204;-80
2022/08/03 04:35:32;;;;;;;0.30;0.30;;;20.20;99.90;;;;;;5087442;28;20744;-80
2022/08/03 04:38:02;;;;;;;0.30;0.30;;;20.20;99.90;;;;;;5077378;28;20192;-81
2022/08/03 04:40:32;;;;;;;0.20;0.20;;;20.20;99.90;;;;;;5074111;28;20181;-80
2022/08/03 04:42:59;;;;;;;0.30;0.30;;;20.40;99.90;;;;;;5069940;28;20209;-80
2022/08/03 04:45:26;;;;;;;0.30;0.30;;;20.40;99.90;;;;;;5080285;28;20287;-80
2022/08/03 04:47:53;;;;;;;0.50;0.50;;;20.60;99.90;;;;;;5070829;28;20209;-80
2022/08/03 04:50:19;;;;;;;0.30;0.30;;;20.60;99.90;;;;;;5071506;28;20197;-80
2022/08/03 04:52:45;;;;;;;0.50;0.50;;;20.70;99.90;;;;;;5071144;28;20722;-81
2022/08/03 04:55:10;;;;;;;0.50;0.43;;;20.70;99.90;;;;;;5073001;28;20268;-80
2022/08/03 04:57:36;;;;;;;0.30;0.30;;;20.60;99.90;;;;;;5072999;28;20189;-80
2022/08/03 05:00:03;;;;;;;0.40;0.40;;;20.60;99.90;;;;;;5075477;28;20193;-80
2022/08/03 05:02:30;;;;;;;0.47;0.47;;;20.90;99.90;;;;;;5075535;28;20304;-80
2022/08/03 05:04:56;;;;;;;0.43;0.40;;;20.90;99.90;;;;;;5074914;28;20189;-79
2022/08/03 05:07:22;;;;;;;0.40;0.40;;;21.10;99.90;;;;;;5073818;28;20873;-79
2022/08/03 05:09:47;;;;;;;2.03;0.30;;;21.10;99.90;;;;;;5070595;28;20618;-79
2022/08/03 05:12:13;;;;;;;0.30;0.30;;;21.10;99.90;;;;;;5076259;28;20698;-79
2022/08/03 05:14:38;;;;;;;0.23;0.23;;;21.30;99.90;;;;;;5067099;28;20193;-80
2022/08/03 05:17:08;;;;;;;0.30;0.30;;;21.40;99.90;;;;;;5074983;28;20669;-80
2022/08/03 05:19:33;;;;;;;0.57;0.57;;;21.50;99.90;;;;;;5067187;28;20185;-80
2022/08/03 05:21:59;;;;;;;0.33;0.33;;;21.70;99.90;;;;;;5087348;28;20215;-80
2022/08/03 05:24:25;;;;;;;0.40;0.40;;;21.70;99.90;;;;;;5071739;28;20658;-79
2022/08/03 05:26:50;;;;;;;0.50;0.50;;;21.90;99.90;;;;;;5079546;28;20208;-79
2022/08/03 05:29:16;;;;;;;0.33;0.33;;;22.00;99.90;;;;;;5092360;28;20177;-80
2022/08/03 05:31:41;;;;;;;0.40;0.40;;;22.00;99.90;;;;;;5074603;28;20205;-80
2022/08/03 05:34:07;;;;;;;0.57;0.40;;;22.00;99.90;;;;;;5076327;28;20564;-80
2022/08/03 05:36:32;;;;;;;0.40;0.40;;;22.10;99.90;;;;;;5063911;28;20190;-79
2022/08/03 05:38:58;;;;;;;0.53;0.40;;;22.10;99.90;;;;;;5068871;28;20940;-80
2022/08/03 05:41:24;;;;;;;0.30;0.30;;;22.20;99.90;;;;;;5073515;28;20270;-79
2022/08/03 05:43:53;;;;;;;1.40;0.93;;;22.20;99.90;;;;;;5072617;28;20589;-80
2022/08/03 05:46:20;;;;;;;1.90;1.80;;;22.20;99.90;;;;;;5071442;28;20658;-80
2022/08/03 05:48:46;;;;;;;2.33;0.60;;;22.30;99.90;;;;;;5069533;28;20654;-80
2022/08/03 05:51:12;;;;;;;0.50;0.50;;;22.30;99.90;;;;;;5075610;28;20195;-80
2022/08/03 05:53:39;;;;;;;0.43;0.43;;;22.20;99.90;;;;;;5075009;28;20539;-80
2022/08/03 05:56:04;;;;;;;0.50;0.50;;;22.30;99.90;;;;;;5087333;28;20181;-80
2022/08/03 05:58:30;;;;;;;0.40;0.40;;;22.30;99.90;;;;;;5088524;28;20180;-80
2022/08/03 06:00:55;;;;;;;0.30;0.30;;;22.40;99.90;;;;;;5074988;28;20237;-79
2022/08/03 06:03:21;;;;;;;1.40;0.33;;;22.50;99.90;;;;;;5068065;28;20593;-80
2022/08/03 06:05:47;;;;;;;0.40;0.40;;;22.50;99.90;;;;;;5071555;28;20177;-80
2022/08/03 06:08:12;;;;;;;1.00;1.00;;;22.60;99.90;;;;;;5075318;28;20205;-79
2022/08/03 06:10:38;;;;;;;0.50;0.50;;;22.80;99.90;;;;;;5068538;28;20185;-80
2022/08/03 06:13:03;;;;;;;0.40;0.40;;;22.90;99.90;;;;;;5062221;28;20428;-80
2022/08/03 06:15:32;;;;;;;0.47;0.47;;;23.00;99.90;;;;;;5074245;28;20180;-80
2022/08/03 06:17:58;;;;;;;0.40;0.40;;;23.10;99.90;;;;;;5068759;28;20854;-79
2022/08/03 06:20:23;;;;;;;0.53;0.50;;;23.20;99.90;;;;;;5088316;28;20196;-80
2022/08/03 06:22:49;;;;;;;0.30;0.30;;;23.20;99.90;;;;;;5072502;28;20212;-79
2022/08/03 06:25:15;;;;;;;1.03;0.90;;;23.30;99.90;;;;;;5068036;28;20185;-80
2022/08/03 06:27:41;;;;;;;0.30;0.30;;;23.30;99.90;;;;;;5072857;28;20778;-79
2022/08/03 06:30:11;;;;;;;1.00;0.90;;;23.40;99.90;;;;;;5059557;28;20189;-79
2022/08/03 06:32:38;;;;;;;0.50;0.40;;;23.50;99.90;;;;;;5070682;28;20322;-79
2022/08/03 06:35:08;;;;;;;0.43;0.43;;;23.60;99.90;;;;;;5073879;28;20192;-79
2022/08/03 06:37:45;;;;;;;0.53;0.53;;;23.70;99.90;;;;;;5070317;28;20189;-80
2022/08/03 06:40:17;;;;;;;0.30;0.30;;;23.90;99.90;;;;;;5068247;28;20204;-80
2022/08/03 06:42:43;;;;;;;0.50;0.50;;;24.00;99.90;;;;;;5082139;28;20728;-79
2022/08/03 06:45:10;;;;;;;0.37;0.37;;;24.20;99.90;;;;;;5065578;28;20670;-79
2022/08/03 06:47:37;;;;;;;0.30;0.30;;;24.30;99.90;;;;;;5067240;28;20208;-80
2022/08/03 06:50:08;;;;;;;0.60;0.60;;;24.60;99.90;;;;;;5062716;28;21450;-79
2022/08/03 06:52:34;;;;;;;0.50;0.50;;;24.70;99.90;;;;;;5071716;28;20209;-79
2022/08/03 06:55:00;;;;;;;0.53;0.43;;;24.70;99.90;;;;;;5073680;28;20286;-80
2022/08/03 06:57:26;;;;;;;0.50;0.50;;;24.90;99.90;;;;;;5072892;28;20200;-79
2022/08/03 06:59:51;;;;;;;0.77;0.60;;;25.10;99.90;;;;;;5069356;28;20213;-79
2022/08/03 07:02:18;;;;;;;0.50;0.50;;;25.30;99.90;;;;;;5070939;28;20220;-79
2022/08/03 07:04:43;;;;;;;0.40;0.40;;;25.30;99.90;;;;;;5065285;28;20208;-80
2022/08/03 07:07:09;;;;;;;0.30;0.30;;;25.60;99.90;;;;;;5065708;28;20227;-80
2022/08/03 07:09:35;;;;;;;0.37;0.37;;;25.80;99.90;;;;;;5068040;28;20628;-80
2022/08/03 07:12:01;;;;;;;0.50;0.47;;;25.40;99.90;;;;;;5065095;28;20205;-79
2022/08/03 07:14:27;;;;;;;0.33;0.33;;;25.60;99.90;;;;;;5064923;28;20188;-80
2022/08/03 07:16:52;;;;;;;0.40;0.40;;;25.80;99.90;;;;;;5072346;28;20192;-80
2022/08/03 07:19:18;;;;;;;0.30;0.30;;;26.00;99.90;;;;;;5067796;28;20193;-79
2022/08/03 07:21:44;;;;;;;1.27;0.53;;;25.90;99.90;;;;;;5070196;28;20220;-80
2022/08/03 07:24:10;;;;;;;0.60;0.60;;;26.20;99.90;;;;;;5074068;28;20322;-80
2022/08/03 07:26:35;;;;;;;0.47;0.47;;;26.30;99.90;;;;;;5076515;28;20291;-80
2022/08/03 07:29:01;;;;;;;0.40;0.33;;;26.50;99.90;;;;;;5070621;28;20527;-80
2022/08/03 07:31:26;;;;;;;0.57;0.57;;;26.50;99.90;;;;;;5067630;28;20173;-80
2022/08/03 07:33:52;;;;;;;0.63;0.63;;;26.90;99.90;;;;;;5075958;28;20181;-80
2022/08/03 07:36:18;;;;;;;1.50;0.97;;;27.10;99.90;;;;;;5075051;28;20184;-80
2022/08/03 07:38:43;;;;;;;0.33;0.33;;;27.20;99.90;;;;;;5070512;28;20650;-80
2022/08/03 07:41:09;;;;;;;0.50;0.50;;;27.30;99.90;;;;;;5069021;28;20188;-80
2022/08/03 07:43:34;;;;;;;0.40;0.27;;;27.10;99.90;;;;;;5072528;28;20293;-80
2022/08/03 07:46:00;;;;;;;0.40;0.40;;;26.90;99.90;;;;;;5066653;28;20188;-80
2022/08/03 07:48:25;;;;;;;0.37;0.37;;;27.30;99.90;;;;;;5065072;28;20281;-79
2022/08/03 07:50:51;;;;;;;0.50;0.50;;;27.50;99.90;;;;;;5068507;28;20822;-80
2022/08/03 07:53:17;;;;;;;0.73;0.30;;;27.80;99.90;;;;;;5069197;28;20272;-80
2022/08/03 07:55:43;;;;;;;1.03;0.93;;;27.70;99.90;;;;;;5071932;28;20499;-80
2022/08/03 07:58:16;;;;;;;0.30;0.30;;;27.70;99.90;;;;;;5068122;28;20356;-80
2022/08/03 08:00:43;;;;;;;0.38;0.38;;;28.10;99.90;;;;;;5073868;28;20241;-80
2022/08/03 08:03:09;;;;;;;0.50;0.50;;;28.10;99.90;;;;;;5070519;28;20213;-80
2022/08/03 08:05:35;;;;;;;0.70;0.70;;;28.40;99.90;;;;;;5072621;28;20185;-80
2022/08/03 08:08:02;;;;;;;1.10;1.00;;;28.10;99.90;;;;;;5069537;28;20237;-80
2022/08/03 08:10:28;;;;;;;0.40;0.40;;;28.30;99.90;;;;;;5064703;28;20610;-80
2022/08/03 08:12:55;;;;;;;1.02;0.40;;;28.40;99.90;;;;;;5067649;28;20201;-80
2022/08/03 08:15:20;;;;;;;0.82;0.82;;;28.40;99.90;;;;;;5069324;28;20182;-80
2022/08/03 08:17:52;;;;;;;0.65;0.65;;;28.60;99.90;;;;;;5067749;28;20276;-80
2022/08/03 08:20:23;;;;;;;1.02;1.02;;;28.40;99.90;;;;;;5070663;28;20178;-79
2022/08/03 08:22:49;;;;;;;0.43;0.43;;;28.80;99.90;;;;;;5071897;28;20221;-81
2022/08/03 08:25:15;;;;;;;0.63;0.60;;;29.10;99.90;;;;;;5075237;28;20207;-80
2022/08/03 08:27:46;;;;;;;0.47;0.47;;;29.30;99.90;;;;;;5088126;28;20206;-80
2022/08/03 08:30:13;;;;;;;0.73;0.70;;;29.50;99.90;;;;;;5073133;28;20189;-80
2022/08/03 08:32:39;;;;;;;1.02;0.70;;;29.60;99.90;;;;;;5076367;28;20327;-80
2022/08/03 08:35:06;;;;;;;0.73;0.73;;;29.50;99.90;;;;;;5074428;28;20177;-79
2022/08/03 08:37:33;;;;;;;1.10;1.00;;;29.70;99.90;;;;;;5071892;28;20187;-80
2022/08/03 08:39:58;;;;;;;0.28;0.28;;;29.90;99.90;;;;;;5070983;28;20193;-80
2022/08/03 08:42:25;;;;;;;0.68;0.68;;;29.90;99.90;;;;;;5081398;28;20203;-80
2022/08/03 08:44:51;;;;;;;0.65;0.65;;;30.00;99.90;;;;;;5076569;28;20608;-80
2022/08/03 08:47:23;;;;;;;0.68;0.68;;;30.00;99.90;;;;;;5089876;28;20209;-80
2022/08/03 08:49:52;;;;;;;0.43;0.43;;;30.10;99.90;;;;;;5074427;28;20209;-80
2022/08/03 08:52:23;;;;;;;0.52;0.52;;;30.20;99.90;;;;;;5078729;28;20200;-80
2022/08/03 08:54:49;;;;;;;0.52;0.52;;;30.30;99.90;;;;;;5075411;28;20663;-79
2022/08/03 08:57:16;;;;;;;0.40;0.40;;;30.40;99.90;;;;;;5070014;28;20184;-80
2022/08/03 08:59:42;;;;;;;0.80;0.73;;;30.50;99.90;;;;;;5076920;28;20196;-79
2022/08/03 09:02:08;;;;;;;0.60;0.60;;;30.50;99.90;;;;;;5076750;28;20278;-80
2022/08/03 09:04:37;;;;;;;1.38;1.17;;;30.50;99.90;;;;;;5076216;28;20188;-80
2022/08/03 09:07:02;;;;;;;0.50;0.50;;;30.60;99.90;;;;;;5074660;28;20274;-80
2022/08/03 09:09:29;;;;;;;0.55;0.52;;;30.70;99.90;;;;;;5073478;28;20244;-80
2022/08/03 09:11:55;;;;;;;0.50;0.50;;;30.80;99.90;;;;;;5074797;28;20201;-80
2022/08/03 09:14:20;;;;;;;1.05;0.70;;;30.90;99.90;;;;;;5078748;28;20196;-80
2022/08/03 09:17:03;;;;;;;1.20;1.10;;;30.90;99.90;;;;;;5077000;28;20189;-79
2022/08/03 09:19:31;;;;;;;1.13;0.90;;;31.00;99.90;;;;;;5080416;28;20279;-80
2022/08/03 09:22:13;;;;;;;0.68;0.50;;;31.00;99.90;;;;;;5075820;28;20232;-80
2022/08/03 09:24:54;;;;;;;2.83;0.80;;;30.90;99.90;;;;;;5073735;28;20242;-80
2022/08/03 09:27:20;;;;;;;0.63;0.60;;;30.90;99.90;;;;;;5071653;28;20292;-80
2022/08/03 09:29:48;;;;;;;0.60;0.60;;;30.90;99.90;;;;;;5079260;28;20654;-79
2022/08/03 09:32:13;;;;;;;0.73;0.73;;;31.10;99.90;;;;;;5077078;28;20197;-79
2022/08/03 09:34:39;;;;;;;0.85;0.85;;;31.40;99.90;;;;;;5074661;28;20246;-80
2022/08/03 09:37:13;;;;;;;0.60;0.60;;;31.60;99.90;;;;;;5069829;28;20189;-80
2022/08/03 09:39:39;;;;;;;0.40;0.40;;;31.70;99.90;;;;;;5070449;28;20188;-80
2022/08/03 09:42:16;;;;;;;0.60;0.60;;;31.70;99.90;;;;;;5073694;28;20587;-80
2022/08/03 09:44:47;;;;;;;0.80;0.80;;;31.60;99.90;;;;;;5073947;28;20196;-80
2022/08/03 09:47:15;;;;;;;0.40;0.40;;;31.90;99.90;;;;;;5074824;28;20556;-80
2022/08/03 09:49:41;;;;;;;0.60;0.60;;;32.00;99.90;;;;;;5074699;28;20198;-80
2022/08/03 09:52:14;;;;;;;1.30;0.75;;;32.10;99.90;;;;;;5074287;28;20216;-80
2022/08/03 09:54:41;;;;;;;0.98;0.60;;;32.00;99.90;;;;;;5069121;28;20177;-80
2022/08/03 09:57:07;;;;;;;0.95;0.57;;;32.00;99.90;;;;;;5072914;28;20189;-80
2022/08/03 09:59:33;;;;;;;0.50;0.50;;;31.90;99.90;;;;;;5093112;28;20284;-80
2022/08/03 10:01:59;;;;;;;0.70;0.70;;;31.90;99.90;;;;;;5072194;28;20290;-80
2022/08/03 10:04:25;;;;;;;0.40;0.40;;;32.10;99.90;;;;;;5067112;28;20184;-80
2022/08/03 10:07:03;;;;;;;0.40;0.40;;;32.30;99.90;;;;;;5077190;28;20200;-80
2022/08/03 10:09:28;;;;;;;0.77;0.77;;;31.80;99.90;;;;;;5072957;28;20188;-80
2022/08/03 10:11:54;;;;;;;1.42;0.88;;;31.80;99.90;;;;;;5068450;28;20202;-80
2022/08/03 10:14:21;;;;;;;0.55;0.55;;;32.20;99.90;;;;;;5070235;28;20260;-80
2022/08/03 10:16:48;;;;;;;0.50;0.50;;;32.50;99.90;;;;;;5065902;28;20718;-80
2022/08/03 10:19:14;;;;;;;0.60;0.60;;;32.90;99.90;;;;;;5068796;28;20189;-80
2022/08/03 10:21:45;;;;;;;0.93;0.93;;;33.00;99.90;;;;;;5070966;28;20237;-80
2022/08/03 10:24:13;;;;;;;0.77;0.73;;;32.20;99.90;;;;;;5071287;28;20203;-80
2022/08/03 10:26:43;;;;;;;0.40;0.40;;;31.90;99.90;;;;;;5072184;28;20208;-80
2022/08/03 10:29:13;;;;;;;1.02;0.73;;;31.80;99.90;;;;;;5067515;28;20173;-80
2022/08/03 10:31:43;;;;;;;1.00;1.00;;;32.00;99.90;;;;;;5066240;28;20279;-80
2022/08/03 10:34:18;;;;;;;1.88;0.82;;;31.70;99.90;;;;;;5070424;28;20296;-80
2022/08/03 10:36:45;;;;;;;0.70;0.70;;;31.60;99.90;;;;;;5071617;28;22213;-80
2022/08/03 10:39:13;;;;;;;0.50;0.50;;;31.70;99.90;;;;;;5071903;28;20204;-80
2022/08/03 10:41:41;;;;;;;1.85;1.67;;;32.40;99.90;;;;;;5072168;28;20276;-80
2022/08/03 10:44:16;;;;;;;0.55;0.55;;;32.60;99.90;;;;;;5073849;28;20207;-80
2022/08/03 10:46:43;;;;;;;1.15;1.00;;;32.90;99.90;;;;;;5072154;28;20204;-80
2022/08/03 10:49:13;;;;;;;0.52;0.52;;;33.10;99.90;;;;;;5067665;28;20189;-80
2022/08/03 10:51:39;;;;;;;0.35;0.35;;;33.20;99.90;;;;;;5073721;28;20193;-80
2022/08/03 10:54:05;;;;;;;0.60;0.60;;;32.90;99.90;;;;;;5076448;28;20177;-80
2022/08/03 10:59:19;;;;;;;0.25;0.25;;;32.90;99.90;;;;;;5065911;28;20180;-80
2022/08/03 11:01:51;;;;;;;0.50;0.50;;;33.30;99.90;;;;;;5072656;28;20204;-80
2022/08/03 11:04:18;;;;;;;0.47;0.47;;;33.40;99.90;;;;;;5071092;28;20181;-80
2022/08/03 11:06:45;;;;;;;0.35;0.35;;;33.50;99.90;;;;;;5087800;28;20282;-80
2022/08/03 11:09:15;;;;;;;0.70;0.70;;;33.50;99.90;;;;;;5068719;28;20589;-80
2022/08/03 11:11:42;;;;;;;0.68;0.68;;;33.70;99.90;;;;;;5075341;28;20232;-80
2022/08/03 11:14:09;;;;;;;0.73;0.73;;;33.60;99.90;;;;;;5075991;28;20180;-80
2022/08/03 11:16:37;;;;;;;0.60;0.57;;;33.60;99.90;;;;;;5071715;28;20173;-80
2022/08/03 11:19:08;;;;;;;0.55;0.50;;;33.50;99.90;;;;;;5068802;28;20185;-80
2022/08/03 11:21:48;;;;;;;0.73;0.60;;;33.50;99.90;;;;;;5090913;28;20204;-80
2022/08/03 11:24:50;;;;;;;0.30;0.30;;;33.40;99.90;;;;;;5064438;28;20208;-80
2022/08/03 11:27:20;;;;;;;0.45;0.45;;;33.30;99.90;;;;;;5036710;28;20208;-80
2022/08/03 11:30:22;;;;;;;0.68;0.68;;;33.60;99.90;;;;;;5067424;28;20212;-80
2022/08/03 11:32:50;;;;;;;1.13;0.50;;;33.20;99.90;;;;;;5073543;28;20201;-80
2022/08/03 11:35:28;;;;;;;0.55;0.55;;;33.40;99.90;;;;;;5072829;28;20631;-80
2022/08/03 11:37:57;;;;;;;0.57;0.57;;;33.40;99.90;;;;;;5079812;28;20173;-80
2022/08/03 11:40:48;;;;;;;0.52;0.52;;;33.60;99.90;;;;;;5098759;28;20190;-80
2022/08/03 11:43:28;;;;;;;0.43;0.43;;;34.00;99.90;;;;;;5071084;28;20200;-80
2022/08/03 11:45:58;;;;;;;0.40;0.40;;;34.10;99.90;;;;;;5072465;28;20267;-80
2022/08/03 11:48:26;;;;;;;0.50;0.50;;;34.30;99.90;;;;;;5071155;28;20234;-80
2022/08/03 11:50:52;;;;;;;0.50;0.50;;;34.50;99.90;;;;;;5075875;28;20215;-80
2022/08/03 11:53:18;;;;;;;0.35;0.35;;;34.50;99.90;;;;;;5071321;28;20254;-80
2022/08/03 11:55:47;;;;;;;0.45;0.45;;;34.60;99.90;;;;;;5062438;28;20593;-80
2022/08/03 11:58:21;;;;;;;0.60;0.60;;;34.40;99.90;;;;;;5074710;28;20580;-80
2022/08/03 12:00:47;;;;;;;0.55;0.55;;;34.30;99.90;;;;;;5075174;28;20573;-80
2022/08/03 12:03:15;;;;;;;0.50;0.50;;;34.40;99.90;;;;;;5078525;28;20201;-80
2022/08/03 12:05:50;;;;;;;0.52;0.52;;;34.00;99.90;;;;;;5076870;28;20215;-80
2022/08/03 12:08:36;;;;;;;2.63;0.93;;;33.10;99.90;;;;;;5073232;28;20235;-80
2022/08/03 12:11:07;;;;;;;0.55;0.52;;;33.10;99.90;;;;;;5076685;28;20538;-80
2022/08/03 12:13:38;;;;;;;0.40;0.40;;;33.60;99.90;;;;;;5073284;28;20661;-80
2022/08/03 12:16:04;;;;;;;0.65;0.65;;;34.10;99.90;;;;;;5073565;28;20185;-80
2022/08/03 12:18:31;;;;;;;0.55;0.55;;;34.30;99.90;;;;;;5072260;28;20794;-80
2022/08/03 12:21:05;;;;;;;0.45;0.43;;;34.50;99.90;;;;;;5080504;28;20673;-80
2022/08/03 12:23:31;;;;;;;0.50;0.50;;;34.50;99.90;;;;;;5080170;28;20215;-80
2022/08/03 12:26:02;;;;;;;0.60;0.60;;;34.20;99.90;;;;;;5072467;28;20184;-80
2022/08/03 12:28:28;;;;;;;0.50;0.50;;;34.10;99.90;;;;;;5067894;28;20202;-81
2022/08/03 12:30:54;;;;;;;0.80;0.80;;;34.30;99.90;;;;;;5072472;28;20181;-80
2022/08/03 12:33:24;;;;;;;0.70;0.70;;;33.80;99.90;;;;;;5074840;28;20622;-80
2022/08/03 12:36:02;;;;;;;0.98;0.80;;;34.30;99.90;;;;;;5073129;28;20671;-80
2022/08/03 12:38:27;;;;;;;1.33;0.57;;;34.50;99.90;;;;;;5072466;28;20192;-80
2022/08/03 12:40:58;;;;;;;0.52;0.52;;;34.70;99.90;;;;;;5077664;28;21113;-80
2022/08/03 12:43:24;;;;;;;0.45;0.45;;;34.80;99.90;;;;;;5075893;28;20209;-80
2022/08/03 12:45:50;;;;;;;0.60;0.52;;;35.00;99.90;;;;;;5076263;28;20185;-80
2022/08/03 12:48:15;;;;;;;0.60;0.60;;;34.40;99.90;;;;;;5072831;28;20208;-80
2022/08/03 12:50:41;;;;;;;0.38;0.38;;;34.80;99.90;;;;;;5067640;28;20246;-80
2022/08/03 12:53:10;;;;;;;0.52;0.47;;;35.00;99.90;;;;;;5092665;28;20205;-81
2022/08/03 12:55:37;;;;;;;0.35;0.35;;;34.90;99.90;;;;;;5074196;28;20200;-80
2022/08/03 12:58:05;;;;;;;0.45;0.45;;;34.90;99.90;;;;;;5069697;28;20189;-80
2022/08/03 13:00:31;;;;;;;0.65;0.60;;;35.10;99.90;;;;;;5071488;28;20185;-80
2022/08/03 13:03:06;;;;;;;0.40;0.40;;;34.90;99.90;;;;;;5075964;28;20549;-80
2022/08/03 13:05:42;;;;;;;0.45;0.45;;;35.20;99.90;;;;;;5073026;28;20276;-81